createdAt,value
2022-10-03T00:02:45.410Z,10.40
2022-10-03T00:07:54.284Z,10.40
2022-10-03T00:13:19.651Z,10.37
2022-10-03T00:18:44.409Z,10.31
2022-10-03T00:23:58.727Z,10.14
2022-10-03T00:29:42.170Z,10.23
2022-10-03T00:34:51.183Z,10.22
2022-10-03T00:40:06.731Z,10.19
2022-10-03T00:45:37.379Z,10.20
2022-10-03T00:51:05.776Z,10.11
2022-10-03T00:56:22.243Z,10.02
2022-10-03T01:01:29.303Z,10.01
2022-10-03T01:06:35.678Z,10.00
2022-10-03T01:11:58.119Z,10.12
2022-10-03T01:17:17.787Z,10.04
2022-10-03T01:22:51.868Z,10.01
2022-10-03T01:28:26.376Z,10.15
2022-10-03T01:33:42.568Z,10.07
2022-10-03T01:38:55.089Z,10.05
2022-10-03T01:44:13.105Z,10.02
2022-10-03T01:49:17.135Z,9.96
2022-10-03T01:54:31.877Z,9.92
2022-10-03T01:59:55.989Z,9.86
2022-10-03T02:05:17.404Z,9.84
2022-10-03T02:10:21.337Z,9.77
2022-10-03T02:15:33.318Z,9.73
2022-10-03T02:20:52.502Z,9.64
2022-10-03T02:26:27.276Z,9.61
2022-10-03T02:32:16.469Z,9.58
2022-10-03T02:37:38.443Z,9.51
2022-10-03T02:43:16.552Z,9.35
2022-10-03T02:48:32.901Z,9.40
2022-10-03T02:54:01.613Z,9.34
2022-10-03T02:59:07.439Z,9.30
2022-10-03T03:04:48.242Z,9.28
2022-10-03T03:10:40.395Z,9.28
2022-10-03T03:16:22.008Z,9.19
2022-10-03T03:21:34.302Z,9.11
2022-10-03T03:26:46.647Z,9.11
2022-10-03T03:32:11.248Z,9.06
2022-10-03T03:37:49.133Z,8.97
2022-10-03T03:42:58.909Z,8.90
2022-10-03T03:48:14.484Z,8.81
2022-10-03T03:53:39.383Z,8.77
2022-10-03T03:59:04.059Z,8.78
2022-10-03T04:04:19.579Z,8.71
2022-10-03T04:09:44.633Z,8.63
2022-10-03T04:14:59.914Z,8.58
2022-10-03T04:20:27.072Z,8.57
2022-10-03T04:26:08.911Z,8.46
2022-10-03T04:31:55.136Z,8.43
2022-10-03T04:37:40.424Z,8.69
2022-10-03T04:42:50.403Z,8.47
2022-10-03T04:48:07.017Z,8.53
2022-10-03T04:53:41.605Z,8.53
2022-10-03T04:59:26.960Z,8.56
2022-10-03T05:04:37.031Z,8.65
2022-10-03T05:10:06.618Z,8.82
2022-10-03T05:15:24.548Z,8.93
2022-10-03T05:20:45.033Z,9.23
2022-10-03T05:32:33.934Z,9.67
2022-10-03T05:37:49.637Z,9.85
2022-10-03T05:43:01.765Z,10.18
2022-10-03T05:48:30.079Z,10.53
2022-10-03T05:53:58.666Z,10.89
2022-10-03T05:59:14.549Z,11.26
2022-10-03T06:04:50.568Z,11.85
2022-10-03T06:09:54.097Z,14.88
2022-10-03T06:15:35.153Z,20.30
2022-10-03T06:21:16.107Z,21.27
2022-10-03T06:26:22.740Z,21.39
2022-10-03T06:31:54.107Z,22.51
2022-10-03T06:37:23.923Z,23.91
2022-10-03T06:42:53.805Z,25.13
2022-10-03T06:48:15.180Z,25.02
2022-10-03T06:53:43.016Z,24.85
2022-10-03T06:58:58.565Z,25.14
2022-10-03T07:04:17.051Z,26.77
2022-10-03T07:09:38.658Z,25.06
2022-10-03T07:15:03.399Z,25.97
2022-10-03T07:20:33.524Z,25.98
2022-10-03T07:26:14.194Z,26.40
2022-10-03T07:31:47.151Z,27.57
2022-10-03T07:37:31.440Z,28.05
2022-10-03T07:42:46.940Z,26.28
2022-10-03T07:48:13.626Z,26.01
2022-10-03T07:53:35.665Z,27.12
2022-10-03T07:58:57.319Z,26.89
2022-10-03T08:04:21.917Z,26.91
2022-10-03T08:09:54.570Z,26.76
2022-10-03T08:15:08.826Z,27.09
2022-10-03T08:20:29.537Z,27.02
2022-10-03T08:26:14.083Z,26.75
2022-10-03T08:31:28.955Z,24.97
2022-10-03T08:37:12.481Z,26.57
2022-10-03T08:42:18.600Z,26.66
2022-10-03T08:47:59.300Z,26.86
2022-10-03T08:53:24.676Z,26.92
2022-10-03T08:58:49.210Z,26.97
2022-10-03T09:04:04.838Z,27.20
2022-10-03T09:09:36.651Z,26.01
2022-10-03T09:14:51.964Z,28.12
2022-10-03T09:20:02.521Z,27.28
2022-10-03T09:25:32.203Z,27.92
2022-10-03T09:31:05.897Z,28.68
2022-10-03T09:36:46.260Z,26.64
2022-10-03T09:42:22.776Z,27.46
2022-10-03T09:47:50.852Z,27.63
2022-10-03T09:53:15.908Z,27.77
2022-10-03T09:58:19.348Z,27.25
2022-10-03T10:03:47.941Z,27.57
2022-10-03T10:09:23.651Z,26.93
2022-10-03T10:14:48.120Z,26.71
2022-10-03T10:20:07.853Z,28.11
2022-10-03T10:25:38.185Z,27.49
2022-10-03T10:31:16.473Z,28.02
2022-10-03T10:36:47.587Z,27.40
2022-10-03T10:42:18.516Z,27.45
2022-10-03T10:47:46.179Z,26.70
2022-10-03T10:53:28.034Z,26.26
2022-10-03T10:58:59.336Z,26.21
2022-10-03T11:04:24.393Z,26.36
2022-10-03T11:10:00.920Z,26.26
2022-10-03T11:15:23.324Z,26.53
2022-10-03T11:20:52.708Z,27.13
2022-10-03T11:26:32.861Z,26.98
2022-10-03T11:32:10.076Z,26.93
2022-10-03T11:37:32.954Z,26.84
2022-10-03T11:42:48.662Z,26.92
2022-10-03T11:48:23.868Z,26.75
2022-10-03T11:53:32.768Z,26.80
2022-10-03T11:58:57.786Z,28.24
2022-10-03T12:04:13.498Z,28.16
2022-10-03T12:09:30.278Z,28.77
2022-10-03T12:14:45.174Z,27.81
2022-10-03T12:20:01.122Z,28.57
2022-10-03T12:25:20.332Z,28.91
2022-10-03T12:30:25.739Z,27.76
2022-10-03T12:35:36.250Z,27.98
2022-10-03T12:40:46.892Z,29.17
2022-10-03T12:46:00.834Z,27.84
2022-10-03T12:51:23.561Z,28.14
2022-10-03T12:56:36.010Z,28.23
2022-10-03T13:02:00.719Z,28.61
2022-10-03T13:07:15.477Z,29.77
2022-10-03T13:12:41.016Z,30.03
2022-10-03T13:17:51.716Z,29.04
2022-10-03T13:23:10.758Z,29.29
2022-10-03T13:28:21.628Z,28.80
2022-10-03T13:33:28.404Z,29.72
2022-10-03T13:39:05.523Z,29.48
2022-10-03T13:44:15.292Z,29.14
2022-10-03T13:49:45.741Z,29.65
2022-10-03T13:54:55.323Z,29.74
2022-10-03T14:00:12.751Z,29.46
2022-10-03T14:05:34.210Z,28.93
2022-10-03T14:11:11.302Z,29.62
2022-10-03T14:16:30.585Z,29.28
2022-10-03T14:21:51.507Z,28.58
2022-10-03T14:27:39.942Z,29.31
2022-10-03T14:33:17.266Z,29.21
2022-10-03T14:39:00.561Z,28.23
2022-10-03T14:44:13.556Z,27.91
2022-10-03T14:49:52.220Z,26.83
2022-10-03T14:54:54.908Z,26.30
2022-10-03T14:59:58.690Z,27.47
2022-10-03T15:05:09.053Z,27.15
2022-10-03T15:10:21.610Z,25.23
2022-10-03T15:15:29.294Z,24.07
2022-10-03T15:20:37.754Z,23.33
2022-10-03T15:25:43.147Z,23.74
2022-10-03T15:30:47.287Z,24.11
2022-10-03T15:35:55.595Z,23.62
2022-10-03T15:41:21.292Z,23.87
2022-10-03T15:46:33.400Z,23.76
2022-10-03T15:51:39.459Z,22.96
2022-10-03T15:56:46.461Z,22.36
2022-10-03T16:01:54.131Z,21.76
2022-10-03T16:07:09.631Z,21.26
2022-10-03T16:12:34.306Z,20.99
2022-10-03T16:17:50.012Z,20.40
2022-10-03T16:22:54.882Z,20.05
2022-10-03T16:28:03.889Z,19.37
2022-10-03T16:33:16.674Z,19.05
2022-10-03T16:38:31.348Z,18.51
2022-10-03T16:43:35.930Z,18.04
2022-10-03T16:49:02.851Z,17.58
2022-10-03T16:54:12.829Z,17.06
2022-10-03T16:59:21.802Z,16.78
2022-10-03T17:04:33.515Z,16.63
2022-10-03T17:09:37.813Z,16.35
2022-10-03T17:14:43.426Z,16.05
2022-10-03T17:19:58.633Z,15.83
2022-10-03T17:25:34.672Z,15.61
2022-10-03T17:30:52.535Z,15.49
2022-10-03T17:36:13.849Z,15.35
2022-10-03T17:41:48.577Z,15.23
2022-10-03T17:47:06.071Z,14.92
2022-10-03T17:52:21.474Z,14.84
2022-10-03T17:57:52.999Z,14.75
2022-10-03T18:03:07.620Z,14.25
2022-10-03T18:08:20.842Z,14.43
2022-10-03T18:13:47.489Z,14.21
2022-10-03T18:18:57.609Z,14.17
2022-10-03T18:24:23.186Z,14.05
2022-10-03T18:29:44.823Z,13.86
2022-10-03T18:34:53.078Z,13.74
2022-10-03T18:39:59.182Z,13.78
2022-10-03T18:45:03.771Z,13.76
2022-10-03T18:50:30.230Z,13.61
2022-10-03T18:56:18.703Z,13.56
2022-10-03T19:01:30.836Z,13.56
2022-10-03T19:06:41.997Z,13.50
2022-10-03T19:11:57.719Z,13.47
2022-10-03T19:17:26.137Z,13.39
2022-10-03T19:22:42.780Z,13.37
2022-10-03T19:27:52.574Z,13.33
2022-10-03T19:33:13.236Z,13.20
2022-10-03T19:38:23.437Z,13.17
2022-10-03T19:43:43.489Z,13.05
2022-10-03T19:49:01.697Z,13.00
2022-10-03T19:54:14.444Z,12.91
2022-10-03T19:59:18.827Z,12.87
2022-10-03T20:04:36.856Z,12.76
2022-10-03T20:09:56.300Z,12.74
2022-10-03T20:15:04.189Z,12.73
2022-10-03T20:20:16.632Z,12.66
2022-10-03T20:25:34.388Z,12.48
2022-10-03T20:30:53.510Z,12.48
2022-10-03T20:36:04.818Z,12.42
2022-10-03T20:41:20.253Z,12.38
2022-10-03T20:46:29.464Z,12.37
2022-10-03T20:51:42.979Z,12.45
2022-10-03T20:57:21.543Z,12.42
2022-10-03T21:02:32.006Z,12.32
2022-10-03T21:07:49.294Z,12.35
2022-10-03T21:13:00.335Z,12.39
2022-10-03T21:18:04.719Z,12.31
2022-10-03T21:23:22.236Z,12.44
2022-10-03T21:28:30.347Z,12.43
2022-10-03T21:34:07.959Z,12.32
2022-10-03T21:39:50.978Z,12.22
2022-10-03T21:44:54.011Z,12.17
2022-10-03T21:50:04.108Z,12.11
2022-10-03T21:55:26.586Z,12.05
2022-10-03T22:01:02.550Z,12.00
2022-10-03T22:06:19.926Z,11.90
2022-10-03T22:11:29.147Z,11.89
2022-10-03T22:17:20.576Z,11.85
2022-10-03T22:23:03.130Z,11.82
2022-10-03T22:28:26.096Z,11.77
2022-10-03T22:33:39.612Z,11.72
2022-10-03T22:38:44.003Z,11.64
2022-10-03T22:43:48.746Z,11.55
2022-10-03T22:49:06.448Z,11.51
2022-10-03T22:54:13.183Z,11.43
2022-10-03T22:59:33.108Z,11.33
2022-10-03T23:04:39.984Z,11.61
2022-10-03T23:10:01.937Z,11.55
2022-10-03T23:15:09.207Z,11.55
2022-10-03T23:20:18.495Z,11.55
2022-10-03T23:25:41.026Z,11.38
2022-10-03T23:30:51.113Z,11.28
2022-10-03T23:35:55.447Z,11.24
2022-10-03T23:41:02.468Z,11.29
2022-10-03T23:46:11.936Z,11.27
2022-10-03T23:51:19.714Z,11.10
2022-10-03T23:56:22.626Z,11.01
